Sheridan, WY

4:36 PM MST on November 25, 2014 (GMT -0700)
KWYSHERI2 | Change Station
CLOSE
Current Station
Personal Weather Station
Location: Sheridan, WY
Elevation: 3828 ft
Nearby Weather Stations
Active Advisory: Winter Weather Advisory Active Notice: Local Storm Report

Elev 3828 ft 44.81 °N, 106.98 °W | Updated 4 minutes ago

Light Snow
Light Snow Mist
29.7 °F
Feels Like 30 °F
N
0.0
Wind Variable Wind from WNW
Gusts 0.0 mph

Today
High -- | Low -- °F
--% Chance of Precip.
Yesterday
High -- | Low -- °F
Precip. -- in
7:18 AM 4:31 PM
Waxing Crescent, 14% visible
Pressure 30.04 in
Visibility 0.8 miles
Clouds
Windchill 30 °F
Dew Point 28 °F
Humidity 92%
Rainfall 0.30 in
Snow Depth Not available.
UV Not available.
Pollen .10 out of 12
Air Quality Not available.
Flu Activity Not available.
SPECI KSHR 252330Z AUTO 30019KT 3/4SM -SN BR VV011 M01/M03 A3004 RMK AO2 PK WND 31027/2258 P0002 T10111028 TSNO

More Conditions Fewer Conditions

Pressure 30.04 in
Visibility 0.8 miles
Clouds
Windchill 30 °F
Dew Point 28 °F
Humidity 92%
Rainfall 0.30 in
Snow Depth Not available.
UV Not available.
Pollen .10 out of 12
Air Quality Not available.
Flu Activity Not available.
SPECI KSHR 252330Z AUTO 30019KT 3/4SM -SN BR VV011 M01/M03 A3004 RMK AO2 PK WND 31027/2258 P0002 T10111028 TSNO

More Conditions Fewer Conditions

10-Day Weather Forecast

Almanac

Astronomy

Nov. 25, 2014 Rise Set
Actual Time
Civil Twilight
Nautical Twilight
Astronomical Twilight
Moon
Length of Visible Light
Length of Day
Tomorrow will be .
, % of the Moon is Illuminated

Today's Extremes

State Highs State Lows

Community

WunderPhotos

Upload Photos

1,773,624 photos uploaded!

WunderBlogs® & News

Nearby

Air Quality

  Air Quality AQ Index Pollutant
Not available.

Snow Depth

Station Depth Elevation

Earthquake Activity

City Distance Mag. Time & Date
Minimum magnitude displayed is 2.5.

Coastal Water Temperatures

Place Temperature

Nearby Weather Stations